Time;durP1;ratioP1;P1;durP2;ratioP2;P2;SDS_P1;SDS_P2;PMS_P1;PMS_P2;Temp;Humidity;BMP_temperature;BMP_pressure;BME280_temperature;BME280_humidity;BME280_pressure;Samples;Min_cycle;Max_cycle;Signal;HPM_P1;HPM_P2
2021/03/01 00:00:23;;;;;;;20.17;16.75;;;3.40;98.60;;;;;;5070322;28;20566;-68
2021/03/01 00:02:50;;;;;;;31.25;17.17;;;3.60;98.90;;;;;;5083770;28;20280;-68
2021/03/01 00:05:17;;;;;;;24.08;17.00;;;3.40;98.90;;;;;;5083550;28;20234;-67
2021/03/01 00:07:44;;;;;;;24.58;16.77;;;3.50;98.80;;;;;;5079146;28;20213;-68
2021/03/01 00:10:12;;;;;;;23.38;16.42;;;3.30;98.90;;;;;;5072975;28;20231;-68
2021/03/01 00:12:39;;;;;;;24.50;15.60;;;3.20;99.00;;;;;;5082915;28;20371;-67
2021/03/01 00:15:09;;;;;;;22.27;16.60;;;3.10;99.50;;;;;;5083221;28;20522;-68
2021/03/01 00:17:36;;;;;;;24.13;17.58;;;3.20;99.30;;;;;;5083044;28;20242;-68
2021/03/01 00:20:09;;;;;;;23.08;18.05;;;3.40;99.10;;;;;;5082878;28;20244;-67
2021/03/01 00:22:35;;;;;;;19.90;13.77;;;3.40;99.00;;;;;;5083528;28;20212;-67
2021/03/01 00:25:04;;;;;;;22.17;16.35;;;3.40;99.00;;;;;;5083172;28;20205;-67
2021/03/01 00:27:31;;;;;;;24.45;17.35;;;3.40;99.00;;;;;;5082214;28;20249;-67
2021/03/01 00:29:57;;;;;;;22.00;16.38;;;3.30;99.00;;;;;;5081569;28;20224;-67
2021/03/01 00:32:24;;;;;;;24.83;17.10;;;3.30;99.10;;;;;;5083020;28;20229;-67
2021/03/01 00:34:51;;;;;;;24.27;16.60;;;3.30;99.10;;;;;;5082552;28;20286;-67
2021/03/01 00:37:17;;;;;;;24.60;16.65;;;3.30;99.10;;;;;;5082678;28;20205;-67
2021/03/01 00:39:44;;;;;;;25.85;17.98;;;3.80;99.00;;;;;;5082906;28;20213;-66
2021/03/01 00:42:10;;;;;;;21.20;16.00;;;3.40;98.90;;;;;;5083799;28;20197;-67
2021/03/01 00:44:37;;;;;;;21.35;15.93;;;3.40;99.00;;;;;;5083184;28;20227;-69
2021/03/01 00:47:04;;;;;;;24.65;16.50;;;3.60;98.90;;;;;;5082726;28;20388;-68
2021/03/01 00:49:31;;;;;;;22.25;16.15;;;3.50;98.50;;;;;;5082579;28;20237;-67
2021/03/01 00:51:58;;;;;;;25.13;17.42;;;3.40;98.80;;;;;;5081179;28;20409;-67
2021/03/01 00:54:24;;;;;;;24.60;15.00;;;3.30;99.00;;;;;;5082648;28;20224;-68
2021/03/01 00:56:51;;;;;;;22.50;16.65;;;3.20;99.10;;;;;;5082392;28;20223;-67
2021/03/01 00:59:18;;;;;;;22.42;14.43;;;3.20;99.30;;;;;;5077137;28;20216;-67
2021/03/01 01:01:44;;;;;;;29.48;16.05;;;3.10;99.50;;;;;;5074307;28;20512;-67
2021/03/01 01:04:11;;;;;;;28.70;17.52;;;3.20;99.60;;;;;;5082253;28;20246;-69
2021/03/01 01:06:37;;;;;;;22.55;15.65;;;3.30;99.50;;;;;;5082078;28;20208;-68
2021/03/01 01:09:04;;;;;;;25.35;15.30;;;3.40;99.30;;;;;;5082377;28;20264;-67
2021/03/01 01:11:31;;;;;;;32.22;15.65;;;3.40;99.10;;;;;;5072084;28;20212;-68
2021/03/01 01:13:58;;;;;;;22.77;14.40;;;3.50;99.20;;;;;;5077930;28;20209;-68
2021/03/01 01:16:24;;;;;;;21.52;15.02;;;3.60;99.00;;;;;;5081979;28;20212;-68
2021/03/01 01:18:51;;;;;;;24.90;16.75;;;3.50;98.90;;;;;;5081759;28;20212;-67
2021/03/01 01:21:17;;;;;;;25.00;16.35;;;3.80;99.00;;;;;;5082008;28;20246;-67
2021/03/01 01:26:22;;;;;;;25.75;15.93;;;3.50;98.80;;;;;;5037827;28;20526;-68
2021/03/01 01:28:49;;;;;;;26.50;16.70;;;3.50;99.00;;;;;;5037496;28;20483;-67
2021/03/01 01:31:15;;;;;;;26.60;15.80;;;3.60;99.00;;;;;;5037996;28;20210;-67
2021/03/01 01:33:42;;;;;;;25.02;16.23;;;3.60;99.00;;;;;;5032197;28;20301;-68
2021/03/01 01:36:10;;;;;;;29.75;17.02;;;3.70;99.00;;;;;;5017782;28;20214;-68
2021/03/01 01:38:50;;;;;;;26.88;17.92;;;3.70;98.80;;;;;;5030190;28;20216;-67
2021/03/01 01:41:17;;;;;;;32.70;18.50;;;3.80;98.90;;;;;;5037421;28;20202;-68
2021/03/01 01:43:44;;;;;;;26.80;18.00;;;3.80;98.90;;;;;;5037275;28;20217;-68
2021/03/01 01:46:10;;;;;;;33.75;20.55;;;3.70;98.90;;;;;;5037023;28;20459;-68
2021/03/01 01:48:37;;;;;;;31.70;18.55;;;4.20;98.90;;;;;;5037209;28;20210;-69
2021/03/01 01:51:04;;;;;;;28.02;17.55;;;3.80;98.80;;;;;;5036988;28;20236;-67
2021/03/01 01:53:31;;;;;;;27.55;16.15;;;3.80;98.50;;;;;;5037395;28;20431;-67
2021/03/01 01:55:59;;;;;;;29.80;17.60;;;3.70;98.50;;;;;;5037428;28;20230;-68
2021/03/01 01:58:26;;;;;;;32.08;21.15;;;3.80;98.60;;;;;;5037092;28;20531;-67
2021/03/01 02:00:53;;;;;;;22.30;16.63;;;3.70;98.60;;;;;;5030548;28;20211;-68
2021/03/01 02:04:07;;;;;;;27.23;18.52;;;3.70;98.50;;;;;;5036774;28;20214;-67
2021/03/01 02:06:55;;;;;;;26.73;17.95;;;3.70;98.60;;;;;;5036085;28;20404;-68
2021/03/01 02:10:03;;;;;;;26.98;17.38;;;3.70;98.70;;;;;;5036164;28;20256;-67
2021/03/01 02:12:53;;;;;;;28.30;18.98;;;3.60;98.80;;;;;;5016555;28;20225;-67
2021/03/01 02:15:31;;;;;;;34.45;20.85;;;3.80;98.70;;;;;;5037122;28;20210;-68
2021/03/01 02:17:57;;;;;;;29.55;19.15;;;3.90;98.40;;;;;;5034539;28;20304;-69
2021/03/01 02:20:24;;;;;;;38.15;19.83;;;3.90;98.40;;;;;;5035377;28;20238;-68
2021/03/01 02:22:51;;;;;;;33.95;18.45;;;3.90;98.40;;;;;;5036553;28;20510;-68
2021/03/01 02:25:19;;;;;;;35.10;21.15;;;4.10;98.20;;;;;;5036763;28;20255;-67
2021/03/01 02:28:00;;;;;;;29.90;17.58;;;4.50;97.90;;;;;;5036569;28;20482;-68
2021/03/01 02:30:31;;;;;;;26.77;18.60;;;4.40;97.30;;;;;;5036716;28;20195;-67
2021/03/01 02:33:12;;;;;;;24.83;16.55;;;4.70;97.30;;;;;;5027414;28;20219;-68
2021/03/01 02:35:43;;;;;;;30.52;19.27;;;5.00;96.60;;;;;;5003058;28;20230;-67
2021/03/01 02:38:11;;;;;;;26.30;17.27;;;4.70;96.40;;;;;;5003504;28;20212;-68
2021/03/01 02:40:40;;;;;;;28.70;19.15;;;4.70;96.60;;;;;;5002603;28;20215;-67
2021/03/01 02:43:11;;;;;;;26.60;17.65;;;4.80;96.40;;;;;;5003797;28;20353;-67
2021/03/01 02:45:38;;;;;;;25.10;16.00;;;4.80;96.40;;;;;;5003408;28;20464;-67
2021/03/01 02:48:05;;;;;;;27.40;17.15;;;5.70;96.60;;;;;;5003330;28;20216;-68
2021/03/01 02:50:32;;;;;;;28.23;16.70;;;4.90;96.20;;;;;;5003082;28;20291;-68
2021/03/01 02:53:00;;;;;;;37.42;20.33;;;4.80;96.30;;;;;;5002954;28;20219;-68
2021/03/01 02:55:27;;;;;;;48.67;28.67;;;4.90;96.10;;;;;;5003407;28;20283;-68
2021/03/01 02:58:08;;;;;;;50.90;27.40;;;4.90;96.10;;;;;;5002977;28;20247;-67
2021/03/01 03:00:35;;;;;;;31.98;20.40;;;4.90;96.30;;;;;;5002878;28;20367;-67
2021/03/01 03:03:03;;;;;;;33.80;21.33;;;4.80;96.10;;;;;;5003157;28;20209;-67
2021/03/01 03:05:30;;;;;;;29.08;17.50;;;4.90;96.00;;;;;;5002998;28;20226;-67
2021/03/01 03:07:59;;;;;;;29.30;17.35;;;5.00;95.90;;;;;;5001712;28;20284;-67
2021/03/01 03:10:27;;;;;;;24.67;15.68;;;5.10;95.90;;;;;;5002979;28;20205;-67
2021/03/01 03:12:55;;;;;;;17.23;12.88;;;5.00;95.80;;;;;;5002666;28;20208;-67
2021/03/01 03:15:23;;;;;;;20.70;15.00;;;5.00;95.90;;;;;;5003355;28;20213;-67
2021/03/01 03:17:51;;;;;;;24.83;13.15;;;4.90;95.90;;;;;;5002878;28;20221;-67
2021/03/01 03:20:17;;;;;;;22.33;14.95;;;5.00;95.80;;;;;;5003041;28;20410;-67
2021/03/01 03:22:44;;;;;;;23.58;13.52;;;4.90;95.80;;;;;;5002572;28;20304;-67
2021/03/01 03:25:12;;;;;;;18.35;12.88;;;4.90;95.90;;;;;;5002581;28;20292;-68
2021/03/01 03:27:39;;;;;;;20.25;13.95;;;4.90;96.00;;;;;;5002271;28;20219;-68
2021/03/01 03:30:18;;;;;;;20.13;13.48;;;4.80;96.50;;;;;;5002855;28;20209;-67
2021/03/01 03:32:45;;;;;;;33.58;21.00;;;4.90;96.10;;;;;;5009738;28;20251;-67
2021/03/01 03:35:12;;;;;;;24.55;17.60;;;5.00;96.00;;;;;;5022329;28;20607;-67
2021/03/01 03:37:43;;;;;;;25.98;17.48;;;4.70;96.20;;;;;;5019134;28;20203;-67
2021/03/01 03:40:13;;;;;;;27.48;18.27;;;4.50;96.70;;;;;;5002231;28;20211;-67
2021/03/01 03:42:42;;;;;;;31.35;19.33;;;4.30;97.30;;;;;;5004912;28;20212;-67
2021/03/01 03:45:11;;;;;;;35.40;19.77;;;4.20;97.60;;;;;;5022070;28;20231;-69
2021/03/01 03:47:41;;;;;;;39.88;21.17;;;4.10;98.00;;;;;;5020980;28;20203;-67
2021/03/01 03:50:10;;;;;;;39.42;22.30;;;4.10;98.10;;;;;;5009634;28;20279;-67
2021/03/01 03:52:40;;;;;;;34.50;20.48;;;4.00;98.10;;;;;;5020375;28;20643;-67
2021/03/01 03:55:11;;;;;;;29.60;18.60;;;4.00;98.30;;;;;;5021858;28;20220;-67
2021/03/01 03:57:40;;;;;;;36.70;21.95;;;4.10;98.20;;;;;;5021373;28;20219;-68
2021/03/01 04:00:11;;;;;;;33.80;20.50;;;4.00;98.30;;;;;;5019894;28;20201;-68
2021/03/01 04:02:41;;;;;;;35.83;21.27;;;4.20;98.30;;;;;;5021510;28;20275;-67
2021/03/01 04:05:09;;;;;;;36.45;22.45;;;4.40;97.90;;;;;;5021718;28;20305;-67
2021/03/01 04:07:38;;;;;;;32.35;21.52;;;4.70;97.40;;;;;;5007692;28;20231;-68
2021/03/01 04:10:08;;;;;;;35.42;20.30;;;4.70;97.00;;;;;;5021630;28;20200;-69
2021/03/01 04:12:38;;;;;;;34.63;22.95;;;4.40;97.30;;;;;;5020480;28;20212;-67
2021/03/01 04:15:10;;;;;;;36.97;21.70;;;4.20;97.60;;;;;;5021298;28;20216;-67
2021/03/01 04:17:39;;;;;;;40.63;22.77;;;4.00;98.00;;;;;;5020429;28;20214;-67
2021/03/01 04:20:09;;;;;;;34.10;20.77;;;4.00;98.20;;;;;;5021164;28;20215;-67
2021/03/01 04:22:37;;;;;;;35.05;22.70;;;4.10;98.10;;;;;;5021350;28;20258;-67
2021/03/01 04:25:06;;;;;;;37.53;19.30;;;4.00;98.10;;;;;;5021032;28;20254;-67
2021/03/01 04:27:37;;;;;;;38.55;22.50;;;4.00;98.20;;;;;;5021097;28;20225;-67
2021/03/01 04:30:08;;;;;;;36.75;21.70;;;4.10;98.00;;;;;;5021113;28;20510;-68
2021/03/01 04:32:37;;;;;;;44.80;23.17;;;4.20;98.00;;;;;;5021253;28;20220;-68
2021/03/01 04:35:06;;;;;;;35.53;21.92;;;4.30;97.70;;;;;;5020989;28;20216;-68
2021/03/01 04:37:33;;;;;;;42.70;22.05;;;4.20;97.50;;;;;;5022369;28;20667;-67
2021/03/01 04:40:00;;;;;;;39.60;23.30;;;4.00;98.10;;;;;;5019987;28;20235;-67
2021/03/01 04:42:29;;;;;;;36.05;20.77;;;4.20;98.10;;;;;;5001101;28;20395;-68
2021/03/01 04:44:58;;;;;;;38.25;22.98;;;4.30;97.50;;;;;;5001123;28;20596;-68
2021/03/01 04:47:29;;;;;;;44.30;23.08;;;4.10;97.80;;;;;;4994895;28;20239;-68
2021/03/01 04:49:58;;;;;;;37.72;24.75;;;4.00;98.10;;;;;;4993907;28;20201;-67
2021/03/01 04:52:31;;;;;;;39.92;23.00;;;4.10;98.10;;;;;;5001387;28;20248;-68
2021/03/01 04:55:01;;;;;;;39.63;22.80;;;4.10;98.00;;;;;;5001126;28;20218;-67
2021/03/01 04:57:29;;;;;;;37.58;21.20;;;4.20;98.10;;;;;;5001056;28;20229;-68
2021/03/01 04:59:59;;;;;;;40.35;25.30;;;4.00;98.10;;;;;;5000414;28;20199;-68
2021/03/01 05:02:27;;;;;;;43.83;26.58;;;4.00;98.30;;;;;;5000611;28;20530;-67
2021/03/01 05:04:56;;;;;;;45.00;25.30;;;4.10;98.30;;;;;;4992022;28;20271;-67
2021/03/01 05:07:24;;;;;;;39.22;22.90;;;4.10;98.10;;;;;;5000494;28;20494;-67
2021/03/01 05:09:51;;;;;;;43.50;22.70;;;4.10;98.10;;;;;;5000296;28;20219;-67
2021/03/01 05:12:17;;;;;;;36.47;23.08;;;4.10;98.10;;;;;;5000755;28;20434;-68
2021/03/01 05:14:44;;;;;;;42.58;24.88;;;4.20;98.20;;;;;;5000321;28;20212;-68
2021/03/01 05:17:11;;;;;;;45.88;23.98;;;4.00;98.20;;;;;;5000844;28;20206;-67
2021/03/01 05:19:38;;;;;;;43.22;24.92;;;4.10;98.30;;;;;;5000511;28;20236;-66
2021/03/01 05:22:04;;;;;;;42.28;24.92;;;4.00;98.30;;;;;;5000849;28;20209;-67
2021/03/01 05:24:31;;;;;;;42.30;23.63;;;4.00;98.50;;;;;;5000117;28;20232;-67
2021/03/01 05:26:58;;;;;;;38.72;20.67;;;3.80;98.70;;;;;;4992223;28;20212;-66
2021/03/01 05:29:25;;;;;;;42.45;24.23;;;3.90;98.70;;;;;;5000334;28;20208;-67
2021/03/01 05:31:52;;;;;;;38.28;21.63;;;3.90;98.70;;;;;;4999973;28;20201;-67
2021/03/01 05:34:18;;;;;;;40.05;23.92;;;4.00;98.60;;;;;;5000313;28;20222;-67
2021/03/01 05:36:45;;;;;;;45.50;24.55;;;4.00;98.40;;;;;;5000058;28;20511;-68
2021/03/01 05:39:12;;;;;;;48.80;25.50;;;4.10;98.30;;;;;;5013026;28;20213;-67
2021/03/01 05:41:40;;;;;;;45.35;25.23;;;4.00;98.80;;;;;;5006079;28;20574;-68
2021/03/01 05:44:08;;;;;;;39.92;23.52;;;4.00;98.50;;;;;;5020408;28;20219;-68
2021/03/01 05:46:35;;;;;;;44.85;23.05;;;4.10;98.30;;;;;;5019889;28;20229;-68
2021/03/01 05:49:04;;;;;;;47.53;24.40;;;4.10;98.30;;;;;;5019825;28;20210;-68
2021/03/01 05:51:33;;;;;;;44.97;24.92;;;4.10;98.20;;;;;;5019858;28;20236;-67
2021/03/01 05:54:02;;;;;;;37.55;22.60;;;4.20;98.10;;;;;;5019733;28;20258;-68
2021/03/01 05:56:29;;;;;;;37.83;23.10;;;4.30;97.80;;;;;;5019958;28;20227;-67
2021/03/01 05:58:56;;;;;;;41.13;23.80;;;4.30;97.90;;;;;;5017681;28;20211;-67
2021/03/01 06:01:26;;;;;;;39.13;22.77;;;4.40;97.80;;;;;;5013999;28;20204;-68
2021/03/01 06:03:53;;;;;;;35.10;22.50;;;4.50;97.60;;;;;;5018648;28;20205;-68
2021/03/01 06:06:19;;;;;;;47.13;25.67;;;4.40;97.60;;;;;;5012896;28;20235;-67
2021/03/01 06:08:46;;;;;;;40.90;24.27;;;4.40;97.60;;;;;;5017393;28;20266;-68
2021/03/01 06:11:12;;;;;;;42.35;22.70;;;4.40;97.60;;;;;;5016657;28;20219;-67
2021/03/01 06:13:39;;;;;;;41.35;24.58;;;4.50;97.60;;;;;;5020430;28;20212;-67
2021/03/01 06:16:06;;;;;;;51.05;26.70;;;4.50;97.40;;;;;;5023316;28;20226;-67
2021/03/01 06:18:43;;;;;;;37.15;22.70;;;4.50;97.30;;;;;;5017698;28;20522;-66
2021/03/01 06:21:18;;;;;;;37.50;21.83;;;4.40;97.40;;;;;;5023660;28;20203;-67
2021/03/01 06:23:45;;;;;;;35.35;22.63;;;4.30;97.60;;;;;;5022971;28;20203;-67
2021/03/01 06:26:32;;;;;;;42.78;22.67;;;4.40;97.60;;;;;;5023090;28;20442;-67
2021/03/01 06:29:02;;;;;;;39.60;21.88;;;4.40;97.60;;;;;;5021883;28;20208;-67
2021/03/01 06:31:34;;;;;;;39.90;21.33;;;4.40;97.40;;;;;;5008092;28;20395;-67
2021/03/01 06:34:29;;;;;;;38.08;23.15;;;4.40;97.40;;;;;;5003531;28;20213;-66
2021/03/01 06:37:09;;;;;;;40.50;22.73;;;4.50;97.30;;;;;;5002415;28;20200;-67
2021/03/01 06:39:50;;;;;;;36.45;22.20;;;4.60;97.20;;;;;;5003668;28;20214;-67
2021/03/01 06:42:19;;;;;;;33.63;19.98;;;4.70;97.00;;;;;;5022288;28;20204;-67
2021/03/01 06:45:09;;;;;;;40.13;21.48;;;4.90;96.70;;;;;;5018193;28;20247;-68
2021/03/01 06:47:53;;;;;;;34.05;20.45;;;5.20;96.10;;;;;;5001025;28;20217;-67
2021/03/01 06:50:33;;;;;;;39.88;20.70;;;5.10;96.00;;;;;;5019008;28;20419;-68
2021/03/01 06:53:12;;;;;;;39.08;20.05;;;5.10;96.00;;;;;;5017126;28;20223;-68
2021/03/01 06:55:59;;;;;;;43.67;22.38;;;5.10;96.00;;;;;;5001913;28;20212;-69
2021/03/01 06:58:28;;;;;;;36.10;20.55;;;5.10;96.00;;;;;;5016725;28;20220;-68
2021/03/01 07:13:54;;;;;;;38.72;25.02;;;5.00;96.10;;;;;;5138246;27;20582;-69
2021/03/01 07:16:21;;;;;;;37.40;24.52;;;5.70;94.90;;;;;;5137517;27;20205;-70
2021/03/01 07:18:50;;;;;;;45.10;22.83;;;5.60;94.90;;;;;;5112510;28;20268;-69
2021/03/01 07:21:18;;;;;;;35.80;23.02;;;5.70;95.00;;;;;;5108188;28;20244;-69
2021/03/01 07:23:49;;;;;;;38.92;22.23;;;5.50;95.20;;;;;;5122115;28;20371;-70
2021/03/01 07:26:17;;;;;;;39.83;23.38;;;5.30;95.40;;;;;;5114468;28;20198;-71
2021/03/01 07:28:50;;;;;;;37.70;22.40;;;5.40;95.50;;;;;;5112159;28;20205;-69
2021/03/01 07:31:20;;;;;;;33.88;22.45;;;5.50;95.20;;;;;;5146639;27;20205;-70
2021/03/01 07:33:47;;;;;;;39.35;21.45;;;5.50;95.30;;;;;;5102422;28;20210;-71
2021/03/01 07:36:16;;;;;;;37.72;22.05;;;5.40;95.50;;;;;;5114549;28;20239;-70
2021/03/01 07:38:43;;;;;;;37.85;21.35;;;5.40;95.40;;;;;;5114259;28;20236;-70
2021/03/01 07:41:09;;;;;;;37.33;21.92;;;5.60;95.40;;;;;;5114768;28;20208;-70
2021/03/01 07:43:41;;;;;;;32.15;20.40;;;5.60;94.80;;;;;;5121255;28;20467;-69
2021/03/01 07:46:08;;;;;;;40.40;23.65;;;5.70;94.80;;;;;;5123586;28;20532;-69
2021/03/01 07:48:37;;;;;;;36.22;21.67;;;5.80;94.50;;;;;;5114048;28;20511;-69
2021/03/01 07:51:06;;;;;;;46.92;23.20;;;5.90;94.50;;;;;;5113158;28;20231;-70
2021/03/01 07:53:48;;;;;;;32.50;19.70;;;6.10;93.90;;;;;;5113685;28;20488;-71
2021/03/01 07:56:20;;;;;;;38.67;21.70;;;6.10;94.10;;;;;;5114443;28;20210;-70
2021/03/01 07:59:04;;;;;;;39.20;21.88;;;5.90;94.50;;;;;;5113716;28;20209;-70
2021/03/01 08:01:31;;;;;;;32.13;20.92;;;5.80;94.60;;;;;;5114075;28;20213;-69
2021/03/01 08:03:59;;;;;;;33.78;21.30;;;5.90;94.50;;;;;;5118105;27;20656;-69
2021/03/01 08:06:55;;;;;;;28.58;17.70;;;6.10;94.10;;;;;;5118403;28;20233;-69
2021/03/01 08:09:48;;;;;;;41.75;21.83;;;6.20;94.00;;;;;;5120910;28;20223;-69
2021/03/01 08:12:35;;;;;;;35.78;19.85;;;6.20;93.70;;;;;;5113392;28;20250;-70
2021/03/01 08:15:08;;;;;;;33.88;21.95;;;6.10;93.80;;;;;;5083296;28;20213;-69
2021/03/01 08:17:39;;;;;;;32.78;19.60;;;6.10;93.90;;;;;;5099508;28;20483;-70
2021/03/01 08:20:12;;;;;;;32.33;20.88;;;6.10;93.90;;;;;;5087551;28;20377;-69
2021/03/01 08:23:10;;;;;;;34.33;22.27;;;6.30;94.00;;;;;;5080810;28;20519;-70
2021/03/01 08:25:49;;;;;;;29.88;19.20;;;6.50;93.40;;;;;;5081836;28;20261;-71
2021/03/01 08:28:16;;;;;;;36.15;21.48;;;6.40;93.20;;;;;;5091089;28;20202;-70
2021/03/01 08:30:52;;;;;;;35.22;19.45;;;6.30;93.50;;;;;;5082341;28;20220;-71
2021/03/01 08:33:20;;;;;;;28.38;17.95;;;6.40;93.20;;;;;;5080028;28;20299;-71
2021/03/01 08:35:49;;;;;;;37.88;19.02;;;6.40;93.40;;;;;;5090081;28;20241;-71
2021/03/01 08:38:37;;;;;;;30.95;18.90;;;6.30;93.60;;;;;;5097432;28;20213;-70
2021/03/01 08:41:04;;;;;;;25.77;16.83;;;6.30;93.40;;;;;;5105673;28;20389;-70
2021/03/01 08:43:32;;;;;;;25.88;17.90;;;6.30;93.40;;;;;;5107997;28;20210;-70
2021/03/01 08:45:59;;;;;;;25.90;16.77;;;6.40;93.40;;;;;;5104170;28;20209;-71
2021/03/01 08:48:26;;;;;;;29.75;18.15;;;6.30;93.30;;;;;;5105807;28;20269;-70
2021/03/01 08:50:54;;;;;;;26.27;16.13;;;6.20;93.60;;;;;;5108190;28;20527;-71
2021/03/01 08:53:26;;;;;;;39.15;19.70;;;6.10;93.60;;;;;;5111344;28;20290;-71
2021/03/01 08:55:54;;;;;;;33.95;20.67;;;6.30;93.60;;;;;;5107356;28;20202;-70
2021/03/01 08:58:21;;;;;;;29.02;18.80;;;6.30;93.70;;;;;;5099258;28;20221;-71
2021/03/01 09:00:59;;;;;;;33.30;19.45;;;6.30;93.90;;;;;;5098010;28;20204;-71
2021/03/01 09:03:40;;;;;;;21.17;16.70;;;6.70;93.20;;;;;;5098841;28;20276;-73
2021/03/01 09:06:15;;;;;;;29.13;16.52;;;6.70;92.70;;;;;;5099034;28;20511;-72
2021/03/01 09:08:46;;;;;;;30.67;18.45;;;6.50;93.10;;;;;;5107899;28;20194;-71
2021/03/01 09:11:16;;;;;;;23.65;16.90;;;6.40;93.60;;;;;;5098923;28;20214;-71
2021/03/01 09:13:44;;;;;;;23.75;15.60;;;6.80;93.00;;;;;;5107222;28;20228;-71
2021/03/01 09:16:13;;;;;;;24.13;15.27;;;7.00;92.30;;;;;;5098688;28;20206;-70
2021/03/01 09:18:44;;;;;;;20.90;14.27;;;7.10;91.90;;;;;;5098665;28;20210;-70
2021/03/01 09:21:16;;;;;;;21.40;14.25;;;7.10;91.70;;;;;;5099119;28;20519;-71
2021/03/01 09:23:46;;;;;;;29.08;15.93;;;7.00;91.60;;;;;;5098531;28;20504;-70
2021/03/01 09:26:29;;;;;;;26.67;16.10;;;6.60;92.30;;;;;;5097674;28;20256;-71
2021/03/01 09:29:06;;;;;;;31.33;18.48;;;6.60;92.40;;;;;;5097941;28;20206;-69
2021/03/01 09:31:51;;;;;;;25.90;16.17;;;6.60;92.40;;;;;;5097855;28;20229;-70
2021/03/01 09:34:21;;;;;;;25.80;15.05;;;6.50;92.50;;;;;;5097914;28;20210;-71
2021/03/01 09:37:08;;;;;;;24.33;14.98;;;6.40;92.60;;;;;;5098655;28;20248;-71
2021/03/01 09:39:38;;;;;;;23.42;16.85;;;6.40;92.70;;;;;;5098414;28;20495;-71
2021/03/01 09:42:05;;;;;;;22.10;12.70;;;6.60;92.60;;;;;;5100293;28;20205;-71
2021/03/01 09:44:35;;;;;;;20.95;15.23;;;6.70;92.10;;;;;;5105475;28;20232;-71
2021/03/01 09:47:02;;;;;;;23.90;16.48;;;6.90;92.00;;;;;;5107484;28;20734;-71
2021/03/01 09:49:34;;;;;;;21.42;14.35;;;7.00;91.90;;;;;;5102871;28;20304;-72
2021/03/01 09:52:00;;;;;;;23.65;16.58;;;7.10;91.50;;;;;;5099045;28;20242;-74
2021/03/01 09:54:29;;;;;;;25.05;16.90;;;6.80;91.90;;;;;;5107289;28;20550;-72
2021/03/01 09:57:02;;;;;;;25.10;15.48;;;6.70;92.30;;;;;;5105511;28;20205;-70
2021/03/01 09:59:36;;;;;;;24.38;14.82;;;6.60;92.20;;;;;;5104949;28;20208;-72
2021/03/01 10:02:20;;;;;;;21.83;14.60;;;6.60;92.10;;;;;;5101211;28;20232;-69
2021/03/01 10:04:48;;;;;;;21.08;15.70;;;6.70;92.00;;;;;;5099848;28;20206;-71
2021/03/01 10:07:35;;;;;;;21.60;14.95;;;6.80;91.80;;;;;;5100101;28;20198;-71
2021/03/01 10:10:12;;;;;;;24.63;14.88;;;7.00;91.30;;;;;;5100399;28;20218;-73
2021/03/01 10:12:47;;;;;;;23.73;13.88;;;7.10;91.40;;;;;;5102204;28;20268;-74
2021/03/01 10:15:20;;;;;;;23.95;15.48;;;7.50;91.10;;;;;;5100380;28;20542;-71
2021/03/01 10:18:01;;;;;;;16.25;12.68;;;7.90;90.10;;;;;;5109418;28;20233;-72
2021/03/01 10:20:28;;;;;;;22.73;13.38;;;8.00;89.00;;;;;;5107388;28;20202;-72
2021/03/01 10:23:06;;;;;;;19.85;13.88;;;7.60;90.10;;;;;;5102432;28;20205;-71
2021/03/01 10:26:07;;;;;;;24.27;15.73;;;7.40;90.50;;;;;;5105875;28;20202;-71
2021/03/01 10:28:37;;;;;;;22.23;15.63;;;7.50;90.40;;;;;;5095438;28;20198;-71
2021/03/01 10:31:10;;;;;;;23.67;14.13;;;7.50;90.40;;;;;;5094320;28;20269;-71
2021/03/01 10:33:53;;;;;;;24.83;16.23;;;7.30;90.40;;;;;;5096012;28;20415;-70
2021/03/01 10:36:29;;;;;;;21.63;15.63;;;7.10;90.90;;;;;;5084325;28;20206;-71
2021/03/01 10:39:03;;;;;;;20.33;15.60;;;7.10;91.00;;;;;;5096938;28;20273;-70
2021/03/01 10:41:39;;;;;;;30.80;15.68;;;7.00;91.00;;;;;;5096643;28;20230;-71
2021/03/01 10:44:07;;;;;;;25.35;15.45;;;7.30;90.60;;;;;;5097010;28;20202;-71
2021/03/01 10:46:46;;;;;;;24.42;14.95;;;7.40;90.50;;;;;;5096047;28;20222;-71
2021/03/01 10:49:18;;;;;;;18.25;13.82;;;7.70;90.10;;;;;;5094765;28;20505;-72
2021/03/01 10:51:46;;;;;;;22.42;14.57;;;7.70;90.00;;;;;;5097384;28;20233;-70
2021/03/01 10:54:13;;;;;;;33.22;15.35;;;7.70;89.90;;;;;;5094899;28;20213;-71
2021/03/01 10:56:41;;;;;;;28.42;17.15;;;7.80;90.00;;;;;;5096511;28;20503;-72
2021/03/01 10:59:08;;;;;;;26.48;14.90;;;7.80;88.80;;;;;;5096986;28;20447;-71
2021/03/01 11:01:37;;;;;;;21.25;15.02;;;8.10;88.60;;;;;;5096045;28;20511;-72
2021/03/01 11:04:06;;;;;;;20.60;14.95;;;8.10;87.60;;;;;;5096719;28;20206;-72
2021/03/01 11:06:33;;;;;;;24.17;14.77;;;7.90;88.90;;;;;;5096973;28;20251;-71
2021/03/01 11:09:02;;;;;;;22.80;16.23;;;7.60;89.60;;;;;;5095604;28;20218;-72
2021/03/01 11:11:28;;;;;;;23.52;14.63;;;7.50;90.40;;;;;;5096452;28;20202;-72
2021/03/01 11:13:55;;;;;;;21.52;12.60;;;7.50;90.20;;;;;;5097673;28;20651;-71
2021/03/01 11:16:22;;;;;;;20.60;14.35;;;7.40;90.30;;;;;;5097825;28;20210;-71
2021/03/01 11:18:49;;;;;;;20.10;13.52;;;7.60;90.10;;;;;;5096663;28;20209;-70
2021/03/01 11:21:16;;;;;;;21.95;15.55;;;7.70;89.80;;;;;;5087112;28;20233;-72
2021/03/01 11:23:43;;;;;;;17.88;13.73;;;7.50;89.80;;;;;;5100553;28;20213;-71
2021/03/01 11:26:09;;;;;;;23.40;16.02;;;7.40;89.70;;;;;;5105836;28;20202;-72
2021/03/01 11:28:36;;;;;;;22.55;15.55;;;7.30;90.00;;;;;;5105761;28;20209;-72
2021/03/01 11:31:03;;;;;;;22.13;14.70;;;7.40;90.10;;;;;;5093841;28;20419;-72
2021/03/01 11:33:30;;;;;;;20.35;14.00;;;;;;;;;;5094543;28;20241;-72
2021/03/01 11:35:57;;;;;;;21.92;14.07;;;7.60;87.90;;;;;;5090914;28;20202;-71
2021/03/01 11:38:39;;;;;;;27.38;15.70;;;7.90;88.30;;;;;;5096746;28;20273;-70
2021/03/01 11:41:06;;;;;;;27.90;15.45;;;8.10;88.30;;;;;;5096406;28;20214;-72
2021/03/01 11:43:47;;;;;;;19.73;13.50;;;8.30;87.40;;;;;;5095865;28;20216;-71
2021/03/01 11:46:14;;;;;;;19.70;15.35;;;8.30;86.20;;;;;;5096767;28;20217;-70
2021/03/01 11:48:41;;;;;;;23.02;15.23;;;8.30;87.00;;;;;;5101796;28;20451;-71
2021/03/01 11:51:10;;;;;;;21.17;13.65;;;8.20;85.80;;;;;;5113395;28;20229;-71
2021/03/01 11:53:37;;;;;;;21.67;14.70;;;8.20;87.30;;;;;;5098016;28;20226;-71
2021/03/01 11:56:06;;;;;;;20.50;15.10;;;7.90;87.00;;;;;;5107081;28;20255;-71
2021/03/01 11:58:33;;;;;;;25.25;15.40;;;7.60;88.80;;;;;;5106598;28;20217;-71
2021/03/01 12:01:00;;;;;;;29.17;16.58;;;7.80;88.70;;;;;;5099281;28;20560;-72
2021/03/01 12:03:29;;;;;;;20.58;15.68;;;7.70;88.90;;;;;;5099113;28;20458;-72
2021/03/01 12:05:56;;;;;;;24.58;16.90;;;7.80;88.40;;;;;;5100762;28;20236;-72
2021/03/01 12:08:23;;;;;;;25.77;17.52;;;7.80;88.20;;;;;;5098593;28;20210;-70
2021/03/01 12:10:49;;;;;;;21.73;15.88;;;7.70;88.90;;;;;;5100426;28;20218;-71
2021/03/01 12:13:17;;;;;;;25.00;15.27;;;8.30;88.70;;;;;;5100236;28;20547;-71
2021/03/01 12:15:43;;;;;;;20.60;16.30;;;7.90;88.10;;;;;;5100458;28;20202;-72
2021/03/01 12:18:10;;;;;;;19.10;16.90;;;8.00;87.30;;;;;;5098697;28;20485;-71
2021/03/01 12:20:37;;;;;;;34.35;18.70;;;7.90;87.40;;;;;;5109124;28;20628;-71
2021/03/01 12:23:05;;;;;;;25.73;17.55;;;8.00;87.90;;;;;;5107354;28;20213;-70
2021/03/01 12:25:32;;;;;;;27.33;17.65;;;8.30;86.50;;;;;;5103366;28;20379;-72
2021/03/01 12:27:58;;;;;;;24.80;17.15;;;8.60;85.00;;;;;;5102051;28;20206;-73
2021/03/01 12:30:25;;;;;;;27.20;17.27;;;8.50;84.40;;;;;;5100801;28;20219;-73
2021/03/01 12:33:11;;;;;;;26.08;17.02;;;8.60;84.30;;;;;;5088387;28;20313;-71
2021/03/01 12:35:37;;;;;;;26.80;16.85;;;8.70;84.60;;;;;;5095040;28;20202;-72
2021/03/01 12:38:05;;;;;;;28.33;16.83;;;8.70;84.00;;;;;;5100653;28;20228;-70
2021/03/01 12:40:32;;;;;;;24.63;17.83;;;8.80;83.90;;;;;;5099285;28;20207;-71
2021/03/01 12:43:00;;;;;;;23.60;15.73;;;8.70;84.60;;;;;;5099162;28;20212;-71
2021/03/01 12:45:28;;;;;;;21.90;15.70;;;8.80;83.80;;;;;;5099708;28;20218;-70
2021/03/01 12:47:55;;;;;;;23.40;15.95;;;9.10;82.90;;;;;;5100367;28;20211;-73
2021/03/01 12:50:22;;;;;;;26.65;16.08;;;9.40;81.40;;;;;;5116904;27;20210;-72
2021/03/01 12:52:49;;;;;;;21.40;14.93;;;9.60;81.20;;;;;;5105844;28;20239;-72
2021/03/01 12:55:16;;;;;;;27.85;16.10;;;10.00;78.90;;;;;;5102915;28;20203;-71
2021/03/01 12:57:42;;;;;;;24.30;18.02;;;10.00;78.90;;;;;;5107936;28;20239;-72
2021/03/01 13:00:10;;;;;;;29.83;17.27;;;9.90;78.80;;;;;;5097639;28;20203;-72
2021/03/01 13:02:37;;;;;;;26.30;16.95;;;9.80;79.60;;;;;;5098057;28;20247;-73
2021/03/01 13:05:07;;;;;;;27.27;18.80;;;10.00;79.40;;;;;;5099830;28;20230;-72
2021/03/01 13:07:36;;;;;;;22.20;17.42;;;10.30;77.90;;;;;;5097968;28;20469;-73
2021/03/01 13:10:04;;;;;;;29.77;18.58;;;9.80;78.40;;;;;;5098777;28;20235;-72